Flight Track Log - Related Links

Times and Time Zones

All times are in EDT time to prevent confusion due to time zone crossing. See the RPA3392 flight status page for this flight to view local times or setup timezone preferences in your user account.

Time Position Orientation Groundspeed Altitude Reporting Facility
EDT Latitude Longitude Course Direction KTS MPH feet Rate Location/Type
Thu 06:08:56 PM 44.9167 -93.2333 117° Southeast 161 185 2,100  Level Minneapolis TRACON
Thu 06:09:48 PM 44.9531 -93.2239 10° North 185 213 3,300 1,737 Climbing Minneapolis Center
Thu 06:10:50 PM 44.9761 -93.1489 66° East 268 308 5,400 2,226 Climbing Minneapolis Center
Thu 06:11:00 PM 44.7246 -92.6498 113° Southeast  Level Estimated
Thu 06:11:52 PM 44.9283 -93.0522 125° Southeast 297 342 7,900  Level Minneapolis Center
Thu 06:12:00 PM 44.6666 -92.5203 122° Southeast  Level FlightAware Approximate
Thu 06:12:54 PM 44.8822 -92.9431 121° Southeast 318 366 10,500  Level Minneapolis Center
Thu 06:13:00 PM 44.6141 -92.3763 117° Southeast  Level FlightAware Approximate
Thu 06:13:56 PM 44.8300 -92.8253 122° Southeast 351 404 12,300  Level Minneapolis Center
Thu 06:14:00 PM 44.5622 -92.2334 117° Southeast  Level FlightAware Approximate
Thu 06:14:59 PM 44.7742 -92.6975 122° Southeast 377 434 14,100  Level Minneapolis Center
Thu 06:16:01 PM 44.7022 -92.5369 122° Southeast 408 470 16,300 2,081 Climbing Minneapolis Center
Thu 06:17:03 PM 44.6408 -92.4003 122° Southeast 415 478 18,400 1,742 Climbing Minneapolis Center
Thu 06:18:05 PM 44.5781 -92.2583 122° Southeast 423 487 19,900 1,500 Climbing Minneapolis Center
Thu 06:19:07 PM 44.5083 -92.1142 124° Southeast 438 504 21,500 1,355 Climbing Minneapolis Center
Thu 06:20:09 PM 44.4328 -91.9708 126° Southeast 452 520 22,700 1,113 Climbing Minneapolis Center
Thu 06:21:11 PM 44.3567 -91.8200 125° Southeast 467 537 23,800 1,210 Climbing Minneapolis Center
Thu 06:22:13 PM 44.2806 -91.6169 118° Southeast 492 566 25,200 1,296 Climbing Minneapolis Center
Thu 06:23:16 PM 44.2147 -91.4461 118° Southeast 498 573 26,500 1,104 Climbing Minneapolis Center
Thu 06:24:18 PM 44.1533 -91.2842 118° Southeast 503 579 27,500 919 Climbing Minneapolis Center
Thu 06:25:20 PM 44.0864 -91.1097 118° Southeast 510 587 28,400 1,016 Climbing Minneapolis Center
Thu 06:26:22 PM 44.0028 -90.8972 119° Southeast 521 600 29,600 1,161 Climbing Minneapolis Center
Thu 06:27:24 PM 43.9350 -90.7200 118° Southeast 522 601 30,800 1,065 Climbing Minneapolis Center
Thu 06:28:26 PM 43.8617 -90.5369 119° Southeast 524 603 31,800 774 Climbing Minneapolis Center
Thu 06:29:28 PM 43.7925 -90.3625 119° Southeast 521 600 32,400 581 Climbing Minneapolis Center
Thu 06:30:30 PM 43.7217 -90.1842 119° Southeast 527 606 33,000 290 Climbing Minneapolis Center
Thu 06:31:32 PM 43.6494 -90.0083 120° Southeast 526 605 33,000  Level Minneapolis Center
Thu 06:32:35 PM 43.5672 -89.8025 119° Southeast 526 605 33,000  Level Minneapolis Center
Thu 06:33:37 PM 43.5081 -89.6194 114° Southeast 527 606 33,000 290 Level Minneapolis Center
Thu 06:34:39 PM 43.4567 -89.4342 111° Southeast 521 600 33,600 629 Climbing Minneapolis Center
Thu 06:35:41 PM 43.4025 -89.2497 112° Southeast 521 600 34,300 618 Climbing Minneapolis Center
Thu 06:36:55 PM 43.3300 -89.0036 112° Southeast 525 604 35,000 309 Climbing Chicago Center
Thu 06:37:57 PM 43.2756 -88.8183 112° Southeast 527 606 35,000  Level Chicago Center
Thu 06:38:59 PM 43.2203 -88.6364 113° Southeast 525 604 35,000  Level Chicago Center
Thu 06:40:00 PM 43.1664 -88.4533 112° Southeast 525 604 35,000  Level Chicago Center
Thu 06:41:02 PM 43.1117 -88.2361 109° East 521 600 35,000  Level Chicago Center
Thu 06:42:04 PM 43.0911 -88.0447 98° East 512 589 35,000  Level Chicago Center
Thu 06:43:06 PM 43.0478 -87.8572 107° East 524 603 35,000  Level Chicago Center
Thu 06:44:08 PM 42.9889 -87.6728 114° Southeast 527 606 35,000  Level Chicago Center
Thu 06:45:10 PM 42.9306 -87.4900 113° Southeast 525 604 35,000  Level Chicago Center
Thu 06:46:11 PM 42.8706 -87.2997 113° Southeast 526 605 35,000  Level Chicago Center
Thu 06:47:13 PM 42.8150 -87.1175 113° Southeast 525 604 35,000  Level Chicago Center
Thu 06:48:15 PM 42.7603 -86.9347 112° Southeast 525 604 35,000  Level Chicago Center
Thu 06:49:17 PM 42.7106 -86.7136 107° East 515 593 35,000  Level Chicago Center
Thu 06:50:19 PM 42.7225 -86.5239 85° East 507 583 35,000  Level Chicago Center
Thu 06:51:20 PM 42.7339 -86.3347 85° East 508 585 35,000  Level Chicago Center
Thu 06:52:22 PM 42.7456 -86.1458 85° East 508 585 35,000  Level Chicago Center
Thu 06:53:24 PM 42.7581 -85.9575 85° East 508 585 35,000  Level Chicago Center
Thu 06:54:26 PM 42.7719 -85.7364 85° East 500 575 35,000  Level Chicago Center
Thu 06:55:28 PM 42.7828 -85.5539 85° East 493 567 35,000  Level Chicago Center
Thu 06:56:29 PM 42.7453 -85.3753 106° East 497 572 35,000  Level Chicago Center
Thu 06:57:31 PM 42.6844 -85.2031 116° Southeast 505 581 35,000  Level Chicago Center
Thu 06:58:33 PM 42.6242 -85.0328 116° Southeast 503 579 35,000  Level Chicago Center
Thu 06:59:35 PM 42.5778 -84.8569 110° East 496 571 35,000  Level Chicago Center
Thu 07:00:37 PM 42.5297 -84.6439 107° East 495 570 35,000  Level Chicago Center
Thu 07:01:38 PM 42.4906 -84.4678 107° East 491 565 35,000  Level Chicago Center
Thu 07:02:40 PM 42.4553 -84.2981 106° East 478 550 35,000  Level Chicago Center
Thu 07:03:42 PM 42.4244 -84.1319 104° East 462 532 35,000  Level Chicago Center
Thu 07:04:43 PM 42.3939 -83.9711 104° East 449 517 35,000  Level Chicago Center
Thu 07:05:45 PM 42.3683 -83.8075 102° East 446 513 35,000  Level Chicago Center
Thu 07:07:09 PM 42.3278 -83.5575 102° East 435 501 35,000  Level Cleveland Center
Thu 07:08:09 PM 42.3008 -83.3961 103° East 441 507 35,000  Level Cleveland Center
Thu 07:09:09 PM 42.2753 -83.2350 102° East 441 507 35,000  Level Cleveland Center
Thu 07:10:09 PM 42.2283 -83.0986 115° Southeast 434 499 35,000  Level Cleveland Center
Thu 07:11:09 PM 42.1306 -82.9939 142° Southeast 428 493 35,000  Level Cleveland Center
Thu 07:12:09 PM 42.0347 -82.8953 143° Southeast 429 494 35,000  Level Cleveland Center
Thu 07:13:09 PM 41.9406 -82.7969 142° Southeast 434 499 35,000  Level Cleveland Center
Thu 07:14:09 PM 41.8489 -82.6933 140° Southeast 434 499 35,000  Level Cleveland Center
Thu 07:15:09 PM 41.7525 -82.5956 143° Southeast 434 499 35,000  Level Cleveland Center
Thu 07:16:09 PM 41.6564 -82.4953 142° Southeast 434 499 35,000  Level Cleveland Center
Thu 07:17:09 PM 41.5517 -82.3839 141° Southeast 434 499 35,000  Level Cleveland Center
Thu 07:18:09 PM 41.4514 -82.2786 142° Southeast 440 506 35,000  Level Cleveland Center
Thu 07:19:09 PM 41.3528 -82.1764 142° Southeast 451 519 35,000  Level Cleveland Center
Thu 07:20:09 PM 41.2581 -82.0719 140° Southeast 456 525 35,000  Level Cleveland Center
Thu 07:21:09 PM 41.1594 -81.9703 142° Southeast 456 525 35,000  Level Cleveland Center
Thu 07:22:09 PM 41.0542 -81.8689 144° Southeast 470 541 35,000  Level Cleveland Center
Thu 07:23:09 PM 40.9553 -81.7653 142° Southeast 470 541 35,000  Level Cleveland Center
Thu 07:24:09 PM 40.8564 -81.6619 142° Southeast 465 535 35,000  Level Cleveland Center
Thu 07:25:09 PM 40.7531 -81.5589 143° Southeast 456 525 35,000  Level Cleveland Center
Thu 07:26:09 PM 40.6728 -81.4317 130° Southeast 456 525 35,000  Level Cleveland Center
Thu 07:27:09 PM 40.6067 -81.3269 130° Southeast 456 525 35,000  Level Cleveland Center
Thu 07:28:09 PM 40.5139 -81.1731 128° Southeast 456 525 35,000  Level Cleveland Center
Thu 07:29:09 PM 40.4331 -81.0469 130° Southeast 451 519 35,000  Level Cleveland Center
Thu 07:30:09 PM 40.3544 -80.9208 129° Southeast 451 519 35,000  Level Cleveland Center
Thu 07:31:09 PM 40.2733 -80.7981 131° Southeast 451 519 35,000  Level Cleveland Center
Thu 07:32:09 PM 40.1922 -80.6700 130° Southeast 451 519 35,000 -350 Level Cleveland Center
Thu 07:33:09 PM 40.1150 -80.5533 131° Southeast 456 525 34,300 -1,000 Descending Cleveland Center
Thu 07:34:09 PM 40.0336 -80.4258 130° Southeast 456 525 33,000 -1,070 Descending Cleveland Center
Thu 07:36:14 PM 39.8647 -80.1575 129° Southeast 437 503 31,000 -645 Descending Washington Center
Thu 07:37:15 PM 39.7817 -80.0386 132° Southeast 437 503 31,000  Level Washington Center
Thu 07:38:13 PM 39.6867 -79.8981 131° Southeast 458 527 31,000  Level Washington Center
Thu 07:39:14 PM 39.6058 -79.7719 130° Southeast 458 527 31,000  Level Washington Center
Thu 07:40:15 PM 39.5225 -79.6461 131° Southeast 458 527 31,000  Level Washington Center
Thu 07:41:13 PM 39.4392 -79.5203 131° Southeast 458 527 31,000 -51 Level Washington Center
Thu 07:42:13 PM 39.3556 -79.3978 131° Southeast 458 527 30,900 -1,200 Descending Washington Center
Thu 07:43:13 PM 39.2742 -79.2703 129° Southeast 458 527 28,600 -1,884 Descending Washington Center
Thu 07:44:14 PM 39.2408 -79.1292 107° East 458 527 27,100 -1,289 Descending Washington Center
Thu 07:45:14 PM 39.2247 -78.9675 97° East 440 506 26,000 -1,686 Descending Washington Center
Thu 07:46:15 PM 39.2103 -78.8089 97° East 440 506 23,700 -2,500 Descending Washington Center
Thu 07:47:14 PM 39.1933 -78.6553 98° East 435 501 21,000 -2,521 Descending Washington Center
Thu 07:48:14 PM 39.1783 -78.5075 97° East 425 489 18,700 -2,033 Descending Washington Center
Thu 07:49:15 PM 39.1628 -78.3675 98° East 414 476 16,900 -807 Descending Washington Center
Thu 07:50:13 PM 39.1306 -78.2300 107° East 395 455 17,100  Climbing Washington Center
Thu 07:51:14 PM 39.0958 -78.0922 108° East 395 455 16,900 -1,140 Descending Washington Center
Thu 07:52:14 PM 39.0611 -77.9600 109° East 400 460 14,800 -1,934 Descending Washington Center
Thu 07:53:15 PM 39.0319 -77.8469 108° East 360 414 13,000 -1,785 Descending Washington Center
Thu 07:54:15 PM 39.0008 -77.7283 109° East 323 372 11,200 -1,664 Descending Washington Center
Thu 07:55:14 PM 38.9753 -77.6317 109° East 318 366 9,700 -1,698 Descending Washington Center
Thu 07:56:01 PM 38.9500 -77.5333 108° East 310 357 8,200 -1,604 Descending Potomac TRACON
Thu 07:56:55 PM 38.9667 -77.4500 76° East 303 349 7,000 -1,150 Descending Potomac TRACON
Thu 07:58:01 PM 39.0000 -77.3333 70° East 283 326 5,900 -826 Descending Potomac TRACON
Thu 07:59:13 PM 39.0333 -77.2500 63° Northeast 237 273 5,100 -950 Descending Potomac TRACON
Thu 08:00:01 PM 39.0333 -77.1833 90° East 239 275 4,000 -1,118 Descending Potomac TRACON
Thu 08:00:55 PM 39.0000 -77.1833 180° South 184 212 3,200 -1,000 Descending Potomac TRACON
Thu 08:02:07 PM 38.9500 -77.1333 142° Southeast 193 222 1,900 -1,083 Descending Potomac TRACON

Login

Don't have an account? Register now (free) for customized features, flight alerts, and more!